Terminal Aerodrome Forecast
Issued by NWS

Home | Current Version | Previous Version | Graphics & Text | Print | Product List | Glossary On
Versions: 1 2 3 4 5 6 7 8 9 10 11 12 13 14 15
622
FTUS42 KMHX 301339 AAA
TAFISO
TAF AMD
KISO 301339Z 3014/0112 19009KT P6SM VCSH BKN004 OVC015
     FM301600 20014G24KT P6SM SCT020 BKN040
     FM302100 20012G22KT P6SM BKN200
     FM010300 21015G25KT 5SM SHRA SCT010 BKN025
     FM010900 24010KT P6SM BKN060
      AMD LTD TO CLD VIS AND WIND=

USA.gov is the U.S. government's official web portal to all federal, state and local government web resources and services.